createdAt,value
2018-10-18T00:00:12.714Z,82.67
2018-10-18T00:02:41.379Z,89.73
2018-10-18T00:05:10.326Z,79.77
2018-10-18T00:07:39.018Z,83.13
2018-10-18T00:10:08.358Z,69.53
2018-10-18T00:12:37.108Z,82.77
2018-10-18T00:15:06.562Z,76.47
2018-10-18T00:17:40.230Z,81.60
2018-10-18T00:20:09.064Z,73.33
2018-10-18T00:22:37.630Z,74.53
2018-10-18T00:25:06.470Z,78.70
2018-10-18T00:27:35.211Z,82.53
2018-10-18T00:30:03.936Z,83.50
2018-10-18T00:32:32.550Z,76.57
2018-10-18T00:35:01.161Z,80.67
2018-10-18T00:37:29.763Z,83.30
2018-10-18T00:39:58.394Z,74.87
2018-10-18T00:42:26.966Z,82.43
2018-10-18T00:44:55.603Z,77.50
2018-10-18T00:47:24.220Z,80.07
2018-10-18T00:49:52.839Z,80.10
2018-10-18T00:52:21.490Z,77.47
2018-10-18T00:54:50.069Z,75.43
2018-10-18T00:57:18.682Z,78.63
2018-10-18T00:59:47.265Z,84.10
2018-10-18T01:02:15.963Z,88.07
2018-10-18T01:04:44.490Z,82.17
2018-10-18T01:07:13.338Z,74.63
2018-10-18T01:09:41.963Z,81.57
2018-10-18T01:12:10.666Z,81.77
2018-10-18T01:14:44.482Z,80.10
2018-10-18T01:17:13.083Z,76.23
2018-10-18T01:19:41.717Z,74.23
2018-10-18T01:22:10.389Z,87.40
2018-10-18T01:24:39.012Z,75.63
2018-10-18T01:27:07.933Z,85.53
2018-10-18T01:29:36.514Z,83.37
2018-10-18T01:32:05.713Z,73.43
2018-10-18T01:34:34.341Z,78.93
2018-10-18T01:37:02.935Z,84.63
2018-10-18T01:39:31.590Z,78.37
2018-10-18T01:42:00.281Z,78.23
2018-10-18T01:44:28.838Z,75.30
2018-10-18T01:46:57.470Z,79.37
2018-10-18T01:49:26.108Z,79.13
2018-10-18T01:51:54.762Z,74.67
2018-10-18T01:54:23.358Z,74.97
2018-10-18T01:56:51.951Z,80.07
2018-10-18T01:59:20.539Z,75.50
2018-10-18T02:01:49.202Z,74.40
2018-10-18T02:04:17.865Z,82.27
2018-10-18T02:06:46.455Z,81.07
2018-10-18T02:09:15.078Z,73.03
2018-10-18T02:11:43.722Z,72.33
2018-10-18T02:14:12.335Z,73.67
2018-10-18T02:16:40.989Z,72.70
2018-10-18T02:19:09.595Z,76.07
2018-10-18T02:21:38.210Z,78.30
2018-10-18T02:24:07.030Z,83.27
2018-10-18T02:26:35.558Z,73.63
2018-10-18T02:29:04.238Z,73.00
2018-10-18T02:31:32.891Z,83.53
2018-10-18T02:34:01.442Z,77.50
2018-10-18T02:36:30.107Z,84.03
2018-10-18T02:38:58.712Z,76.17
2018-10-18T02:41:27.369Z,72.13
2018-10-18T02:43:55.954Z,77.47
2018-10-18T02:46:25.394Z,84.13
2018-10-18T02:48:54.057Z,84.53
2018-10-18T02:51:22.663Z,86.27
2018-10-18T02:53:51.350Z,83.53
2018-10-18T02:56:19.982Z,76.17
2018-10-18T02:58:48.579Z,84.10
2018-10-18T03:01:17.181Z,84.63
2018-10-18T03:03:45.825Z,88.67
2018-10-18T03:06:14.595Z,87.03
2018-10-18T03:08:43.332Z,82.47
2018-10-18T03:11:12.010Z,88.33
2018-10-18T03:13:40.606Z,87.10
2018-10-18T03:16:09.282Z,86.93
2018-10-18T03:18:37.877Z,88.70
2018-10-18T03:21:06.510Z,83.13
2018-10-18T03:23:35.108Z,93.33
2018-10-18T03:26:03.715Z,88.33
2018-10-18T03:28:32.432Z,86.03
2018-10-18T03:31:01.097Z,88.97
2018-10-18T03:33:29.836Z,87.97
2018-10-18T03:35:58.843Z,94.90
2018-10-18T03:38:27.495Z,92.20
2018-10-18T03:40:56.266Z,106.53
2018-10-18T03:43:24.885Z,95.83
2018-10-18T03:45:53.520Z,94.50
2018-10-18T03:48:22.137Z,98.07
2018-10-18T03:50:50.782Z,93.97
2018-10-18T03:53:19.399Z,95.07
2018-10-18T03:55:48.089Z,107.07
2018-10-18T03:58:16.898Z,96.50
2018-10-18T04:00:45.606Z,91.53
2018-10-18T04:03:14.218Z,99.90
2018-10-18T04:05:42.824Z,105.07
2018-10-18T04:08:11.423Z,93.73
2018-10-18T04:10:40.086Z,100.47
2018-10-18T04:13:08.731Z,97.73
2018-10-18T04:15:37.326Z,110.03
2018-10-18T04:18:06.235Z,96.43
2018-10-18T04:20:34.678Z,110.00
2018-10-18T04:23:03.409Z,102.23
2018-10-18T04:25:32.104Z,100.93
2018-10-18T04:28:00.712Z,115.87
2018-10-18T04:30:29.320Z,99.80
2018-10-18T04:32:58.009Z,103.50
2018-10-18T04:35:26.636Z,99.83
2018-10-18T04:37:55.249Z,94.53
2018-10-18T04:40:23.893Z,112.53
2018-10-18T04:42:52.507Z,104.17
2018-10-18T04:45:21.137Z,106.17
2018-10-18T04:47:49.929Z,103.33
2018-10-18T04:50:18.375Z,102.50
2018-10-18T04:52:46.983Z,103.53
2018-10-18T04:55:15.656Z,106.00
2018-10-18T04:57:44.221Z,108.53
2018-10-18T05:00:12.885Z,117.77
2018-10-18T05:02:41.643Z,110.27
2018-10-18T05:05:21.217Z,116.00
2018-10-18T05:07:49.848Z,120.13
2018-10-18T05:10:18.451Z,115.77
2018-10-18T05:12:47.105Z,115.20
2018-10-18T05:15:17.221Z,114.80
2018-10-18T05:17:45.887Z,117.83
2018-10-18T05:20:14.597Z,113.07
2018-10-18T05:22:43.259Z,108.70
2018-10-18T05:25:11.972Z,119.47
2018-10-18T05:27:40.560Z,119.30
2018-10-18T05:30:09.548Z,118.60
2018-10-18T05:32:38.194Z,121.03
2018-10-18T05:35:07.083Z,121.87
2018-10-18T05:37:35.878Z,119.47
2018-10-18T05:40:04.853Z,120.03
2018-10-18T05:42:33.462Z,121.73
2018-10-18T05:45:02.154Z,118.20
2018-10-18T05:47:30.814Z,118.07
2018-10-18T05:49:59.466Z,118.60
2018-10-18T05:52:28.105Z,121.93
2018-10-18T05:54:56.794Z,122.50
2018-10-18T05:57:31.994Z,127.23
2018-10-18T06:00:00.660Z,124.73
2018-10-18T06:02:29.287Z,130.07
2018-10-18T06:04:58.025Z,132.40
2018-10-18T06:07:26.720Z,121.00
2018-10-18T06:12:29.238Z,129.53
2018-10-18T06:14:57.901Z,128.00
2018-10-18T06:17:26.570Z,111.00
2018-10-18T06:19:55.263Z,115.53
2018-10-18T06:22:24.336Z,125.13
2018-10-18T06:24:52.996Z,132.17
2018-10-18T06:27:21.702Z,115.63
2018-10-18T06:29:50.362Z,128.57
2018-10-18T06:32:19.024Z,121.40
2018-10-18T06:34:47.693Z,116.23
2018-10-18T06:37:16.359Z,126.33
2018-10-18T06:39:45.054Z,112.90
2018-10-18T06:42:13.719Z,118.50
2018-10-18T06:44:42.381Z,119.87
2018-10-18T06:47:11.346Z,108.77
2018-10-18T06:49:39.885Z,115.60
2018-10-18T06:52:08.466Z,113.50
2018-10-18T06:54:37.148Z,111.50
2018-10-18T06:57:06.742Z,120.40
2018-10-18T06:59:35.468Z,121.27
2018-10-18T07:02:04.367Z,123.73
2018-10-18T07:04:33.070Z,144.30
2018-10-18T07:07:02.245Z,116.33
2018-10-18T07:09:30.982Z,113.93
2018-10-18T07:11:59.842Z,109.20
2018-10-18T07:14:28.493Z,119.13
2018-10-18T07:16:57.223Z,118.60
2018-10-18T07:19:25.946Z,118.20
2018-10-18T07:21:54.732Z,112.27
2018-10-18T07:24:23.411Z,118.73
2018-10-18T07:26:52.218Z,115.50
2018-10-18T07:29:20.943Z,105.40
2018-10-18T07:31:49.644Z,118.73
2018-10-18T07:34:18.388Z,116.87
2018-10-18T07:36:47.224Z,110.37
2018-10-18T07:39:15.972Z,106.03
2018-10-18T07:41:45.025Z,118.53
2018-10-18T07:44:13.801Z,95.20
2018-10-18T07:46:42.576Z,103.27
2018-10-18T07:49:11.270Z,100.90
2018-10-18T07:51:39.983Z,113.93
2018-10-18T07:54:08.766Z,111.27
2018-10-18T07:56:37.461Z,106.43
2018-10-18T07:59:06.370Z,106.63
2018-10-18T08:01:35.071Z,100.20
2018-10-18T08:04:03.742Z,98.17
2018-10-18T08:06:32.534Z,107.10
2018-10-18T08:09:01.360Z,103.20
2018-10-18T08:11:30.136Z,108.23
2018-10-18T08:13:58.912Z,106.37
2018-10-18T08:16:27.702Z,113.90
2018-10-18T08:18:56.506Z,102.90
2018-10-18T08:21:25.279Z,119.53
2018-10-18T08:23:54.013Z,117.00
2018-10-18T08:26:22.873Z,116.37
2018-10-18T08:28:51.651Z,109.20
2018-10-18T08:31:20.611Z,105.90
2018-10-18T08:33:49.349Z,98.10
2018-10-18T08:36:18.194Z,96.43
2018-10-18T08:38:47.073Z,89.57
2018-10-18T08:41:16.486Z,90.03
2018-10-18T08:43:45.371Z,81.77
2018-10-18T08:46:14.178Z,98.60
2018-10-18T08:48:42.952Z,94.67
2018-10-18T08:51:11.740Z,90.70
2018-10-18T08:53:41.350Z,83.20
2018-10-18T08:56:10.227Z,90.87
2018-10-18T08:58:39.031Z,90.60
2018-10-18T09:01:07.789Z,92.77
2018-10-18T09:03:36.480Z,107.50
2018-10-18T09:06:05.666Z,94.03
2018-10-18T09:08:34.413Z,100.77
2018-10-18T09:11:03.232Z,94.27
2018-10-18T09:13:31.990Z,86.90
2018-10-18T09:16:00.848Z,97.13
2018-10-18T09:18:29.550Z,90.27
2018-10-18T09:20:58.266Z,92.53
2018-10-18T09:23:26.982Z,85.50
2018-10-18T09:25:55.799Z,85.10
2018-10-18T09:28:24.576Z,78.17
2018-10-18T09:30:53.332Z,89.67
2018-10-18T09:33:22.031Z,84.57
2018-10-18T09:35:50.731Z,86.33
2018-10-18T09:38:19.519Z,88.93
2018-10-18T09:40:48.287Z,85.17
2018-10-18T09:43:17.231Z,82.40
2018-10-18T09:45:45.976Z,90.47
2018-10-18T09:48:14.839Z,78.60
2018-10-18T09:50:43.590Z,91.43
2018-10-18T09:53:12.283Z,80.50
2018-10-18T09:55:41.086Z,88.23
2018-10-18T09:58:09.844Z,99.33
2018-10-18T10:00:43.549Z,90.10
2018-10-18T10:03:13.632Z,85.77
2018-10-18T10:05:42.419Z,79.13
2018-10-18T10:08:11.516Z,91.93
2018-10-18T10:10:40.300Z,94.23
2018-10-18T10:13:09.545Z,87.00
2018-10-18T10:15:38.275Z,77.10
2018-10-18T10:18:07.040Z,84.93
2018-10-18T10:20:35.900Z,89.47
2018-10-18T10:23:04.664Z,82.40
2018-10-18T10:25:33.428Z,81.70
2018-10-18T10:28:02.317Z,87.00
2018-10-18T10:30:31.154Z,83.80
2018-10-18T10:32:59.841Z,80.97
2018-10-18T10:35:28.727Z,81.03
2018-10-18T10:37:57.573Z,90.63
2018-10-18T10:40:26.348Z,79.17
2018-10-18T10:42:55.212Z,77.60
2018-10-18T10:45:24.234Z,85.13
2018-10-18T10:47:53.275Z,90.57
2018-10-18T10:50:22.090Z,81.70
2018-10-18T10:52:50.876Z,88.60
2018-10-18T10:55:19.593Z,78.10
2018-10-18T10:57:48.306Z,89.17
2018-10-18T11:00:26.890Z,85.60
2018-10-18T11:02:55.643Z,84.70
2018-10-18T11:05:24.364Z,81.77
2018-10-18T11:07:53.077Z,80.20
2018-10-18T11:10:21.754Z,73.73
2018-10-18T11:12:50.489Z,74.23
2018-10-18T11:15:19.336Z,81.73
2018-10-18T11:17:47.951Z,75.93
2018-10-18T11:20:16.697Z,69.63
2018-10-18T11:22:45.436Z,79.30
2018-10-18T11:25:14.185Z,73.23
2018-10-18T11:27:42.945Z,88.20
2018-10-18T11:30:11.741Z,78.43
2018-10-18T11:32:40.462Z,77.70
2018-10-18T11:35:09.164Z,77.87
2018-10-18T11:37:37.935Z,81.47
2018-10-18T11:40:07.254Z,69.67
2018-10-18T11:42:36.089Z,73.20
2018-10-18T11:45:04.747Z,66.17
2018-10-18T11:47:33.575Z,75.73
2018-10-18T11:50:02.304Z,80.60
2018-10-18T11:52:31.010Z,70.37
2018-10-18T11:54:59.695Z,81.00
2018-10-18T11:57:28.401Z,83.13
2018-10-18T11:59:57.110Z,83.37
2018-10-18T12:02:25.871Z,64.40
2018-10-18T12:04:54.660Z,72.93
2018-10-18T12:07:23.419Z,70.77
2018-10-18T12:09:52.142Z,76.23
2018-10-18T12:12:20.820Z,75.10
2018-10-18T12:14:49.549Z,72.40
2018-10-18T12:17:18.260Z,81.23
2018-10-18T12:19:46.967Z,72.67
2018-10-18T12:22:15.688Z,71.67
2018-10-18T12:24:44.385Z,73.20
2018-10-18T12:27:13.188Z,76.30
2018-10-18T12:29:41.896Z,68.43
2018-10-18T12:32:10.679Z,69.50
2018-10-18T12:34:39.439Z,79.13
2018-10-18T12:37:08.137Z,74.60
2018-10-18T12:39:36.887Z,87.43
2018-10-18T12:42:05.639Z,71.83
2018-10-18T12:44:40.018Z,63.77
2018-10-18T12:47:10.495Z,69.70
2018-10-18T12:49:40.498Z,70.60
2018-10-18T12:52:10.789Z,68.13
2018-10-18T12:54:39.809Z,63.50
2018-10-18T12:57:10.098Z,84.63
2018-10-18T12:59:38.788Z,62.53
2018-10-18T13:02:07.766Z,65.83
2018-10-18T13:04:36.765Z,65.37
2018-10-18T13:07:05.659Z,62.83
2018-10-18T13:09:34.473Z,65.47
2018-10-18T13:12:03.193Z,78.83
2018-10-18T13:14:31.922Z,65.37
2018-10-18T13:17:00.622Z,70.67
2018-10-18T13:19:29.300Z,62.30
2018-10-18T13:21:58.014Z,63.70
2018-10-18T13:24:26.676Z,74.30
2018-10-18T13:26:55.384Z,68.47
2018-10-18T13:29:24.077Z,67.67
2018-10-18T13:31:52.729Z,62.10
2018-10-18T13:34:21.387Z,62.30
2018-10-18T13:36:50.030Z,64.30
2018-10-18T13:39:18.711Z,67.07
2018-10-18T13:41:47.378Z,63.87
2018-10-18T13:44:16.054Z,63.03
2018-10-18T13:46:44.764Z,65.20
2018-10-18T13:49:13.419Z,57.27
2018-10-18T13:51:42.277Z,65.87
2018-10-18T13:54:11.056Z,54.40
2018-10-18T13:56:39.623Z,66.70
2018-10-18T13:59:18.144Z,72.30
2018-10-18T14:01:46.702Z,64.37
2018-10-18T14:04:15.383Z,60.80
2018-10-18T14:06:44.034Z,67.37
2018-10-18T14:09:12.679Z,62.53
2018-10-18T14:11:41.439Z,64.03
2018-10-18T14:14:10.200Z,56.03
2018-10-18T14:16:38.836Z,54.00
2018-10-18T14:19:07.488Z,58.50
2018-10-18T14:21:36.254Z,56.63
2018-10-18T14:24:05.688Z,62.27
2018-10-18T14:26:34.340Z,50.40
2018-10-18T14:29:03.044Z,62.20
2018-10-18T14:31:31.706Z,52.77
2018-10-18T14:34:00.342Z,63.00
2018-10-18T14:36:29.084Z,45.80
2018-10-18T14:38:57.916Z,45.33
2018-10-18T14:41:31.987Z,52.40
2018-10-18T14:44:00.683Z,47.47
2018-10-18T14:46:29.350Z,44.27
2018-10-18T14:48:58.010Z,54.97
2018-10-18T14:51:26.683Z,52.47
2018-10-18T14:53:55.366Z,57.07
2018-10-18T14:56:24.153Z,56.43
2018-10-18T14:58:52.899Z,52.23
2018-10-18T15:01:21.595Z,57.83
2018-10-18T15:03:50.428Z,53.17
2018-10-18T15:06:19.275Z,51.53
2018-10-18T15:08:47.967Z,48.67
2018-10-18T15:11:16.661Z,52.53
2018-10-18T15:13:45.379Z,50.00
2018-10-18T15:16:14.148Z,47.20
2018-10-18T15:18:42.890Z,51.40
2018-10-18T15:21:11.595Z,51.80
2018-10-18T15:23:40.263Z,54.93
2018-10-18T15:26:09.098Z,50.77
2018-10-18T15:28:37.683Z,59.90
2018-10-18T15:31:06.407Z,50.87
2018-10-18T15:33:35.112Z,50.00
2018-10-18T15:36:03.937Z,58.53
2018-10-18T15:38:32.668Z,57.73
2018-10-18T15:41:01.333Z,46.85
2018-10-18T15:43:30.064Z,55.43
2018-10-18T15:45:58.735Z,57.70
2018-10-18T15:48:27.416Z,59.67
2018-10-18T15:50:56.122Z,60.97
2018-10-18T15:53:24.754Z,59.27
2018-10-18T15:55:53.464Z,63.23
2018-10-18T15:58:22.120Z,71.37
2018-10-18T16:00:50.793Z,64.67
2018-10-18T16:03:19.587Z,64.27
2018-10-18T16:05:48.247Z,76.97
2018-10-18T16:08:16.991Z,78.27
2018-10-18T16:10:45.715Z,72.60
2018-10-18T16:13:14.486Z,71.83
2018-10-18T16:15:43.229Z,85.97
2018-10-18T16:18:11.945Z,77.33
2018-10-18T16:20:40.735Z,78.63
2018-10-18T16:23:09.471Z,76.10
2018-10-18T16:25:38.206Z,71.20
2018-10-18T16:28:06.971Z,87.33
2018-10-18T16:30:35.604Z,77.33
2018-10-18T16:33:04.398Z,87.90
2018-10-18T16:35:33.073Z,96.13
2018-10-18T16:38:01.765Z,97.23
2018-10-18T16:40:30.522Z,98.57
2018-10-18T16:43:04.724Z,90.63
2018-10-18T16:45:33.452Z,91.93
2018-10-18T16:48:02.166Z,81.23
2018-10-18T16:50:30.859Z,94.70
2018-10-18T16:52:59.583Z,94.20
2018-10-18T16:55:28.235Z,98.60
2018-10-18T16:57:56.975Z,84.83
2018-10-18T17:00:25.635Z,99.13
2018-10-18T17:02:54.360Z,98.77
2018-10-18T17:05:23.098Z,83.60
2018-10-18T17:07:51.850Z,86.33
2018-10-18T17:10:20.630Z,90.70
2018-10-18T17:12:49.213Z,95.67
2018-10-18T17:15:18.198Z,83.77
2018-10-18T17:17:47.818Z,99.10
2018-10-18T17:20:16.712Z,93.13
2018-10-18T17:22:45.308Z,90.03
2018-10-18T17:25:14.006Z,94.43
2018-10-18T17:27:42.717Z,98.23
2018-10-18T17:30:11.376Z,92.83
2018-10-18T17:32:40.160Z,93.10
2018-10-18T17:35:08.845Z,101.53
2018-10-18T17:37:37.574Z,94.10
2018-10-18T17:40:06.849Z,101.20
2018-10-18T17:42:35.465Z,102.23
2018-10-18T17:45:04.175Z,94.27
2018-10-18T17:47:32.859Z,85.73
2018-10-18T17:50:01.569Z,92.77
2018-10-18T17:52:30.216Z,101.03
2018-10-18T17:54:58.941Z,91.30
2018-10-18T17:57:27.614Z,88.47
2018-10-18T17:59:56.417Z,93.23
2018-10-18T18:02:25.091Z,94.90
2018-10-18T18:04:53.791Z,103.80
2018-10-18T18:07:22.470Z,105.53
2018-10-18T18:09:51.107Z,92.20
2018-10-18T18:12:19.801Z,89.17
2018-10-18T18:14:48.528Z,87.87
2018-10-18T18:17:17.238Z,84.10
2018-10-18T18:19:46.006Z,82.83
2018-10-18T18:22:14.667Z,79.67
2018-10-18T18:24:43.420Z,79.63
2018-10-18T18:27:12.077Z,75.07
2018-10-18T18:29:40.734Z,81.67
2018-10-18T18:32:09.524Z,72.80
2018-10-18T18:34:38.316Z,84.87
2018-10-18T18:37:07.076Z,71.60
2018-10-18T18:39:35.817Z,76.50
2018-10-18T18:42:04.586Z,72.90
2018-10-18T18:44:33.320Z,72.20
2018-10-18T18:47:02.046Z,75.87
2018-10-18T18:49:30.805Z,76.40
2018-10-18T18:51:59.599Z,75.37
2018-10-18T18:54:28.338Z,73.13
2018-10-18T18:56:57.086Z,72.53
2018-10-18T18:59:25.775Z,69.73
2018-10-18T19:01:54.475Z,75.13
2018-10-18T19:04:23.174Z,70.53
2018-10-18T19:06:51.818Z,76.80
2018-10-18T19:09:20.439Z,70.27
2018-10-18T19:11:49.303Z,75.13
2018-10-18T19:14:17.998Z,81.57
2018-10-18T19:16:46.740Z,85.53
2018-10-18T19:19:15.516Z,80.07
2018-10-18T19:21:44.289Z,82.33
2018-10-18T19:24:13.197Z,86.10
2018-10-18T19:26:41.944Z,76.60
2018-10-18T19:29:10.696Z,81.07
2018-10-18T19:31:39.527Z,80.30
2018-10-18T19:34:08.497Z,90.13
2018-10-18T19:36:37.314Z,89.00
2018-10-18T19:39:07.942Z,84.90
2018-10-18T19:41:36.684Z,80.17
2018-10-18T19:44:05.732Z,87.67
2018-10-18T19:46:34.541Z,82.07
2018-10-18T19:49:03.343Z,80.23
2018-10-18T19:51:32.202Z,90.77
2018-10-18T19:54:00.908Z,81.10
2018-10-18T19:56:29.542Z,86.23
2018-10-18T19:58:58.187Z,88.30
2018-10-18T20:01:26.910Z,81.50
2018-10-18T20:03:55.635Z,90.03
2018-10-18T20:06:24.361Z,82.83
2018-10-18T20:08:53.093Z,90.30
2018-10-18T20:11:21.847Z,91.00
2018-10-18T20:13:50.589Z,79.47
2018-10-18T20:16:19.321Z,89.93
2018-10-18T20:18:48.290Z,82.20
2018-10-18T20:21:17.084Z,98.20
2018-10-18T20:23:45.916Z,99.00
2018-10-18T20:26:14.840Z,94.53
2018-10-18T20:28:43.360Z,88.70
2018-10-18T20:31:12.174Z,85.90
2018-10-18T20:33:40.824Z,82.90
2018-10-18T20:36:09.610Z,87.97
2018-10-18T20:38:38.316Z,85.13
2018-10-18T20:41:07.173Z,84.83
2018-10-18T20:43:35.826Z,94.83
2018-10-18T20:46:04.645Z,93.53
2018-10-18T20:48:34.004Z,90.87
2018-10-18T20:51:03.521Z,100.33
2018-10-18T20:53:32.483Z,92.17
2018-10-18T20:56:02.110Z,93.27
2018-10-18T20:58:31.930Z,99.97
2018-10-18T21:01:00.830Z,107.63
2018-10-18T21:03:29.525Z,112.40
2018-10-18T21:05:59.071Z,97.10
2018-10-18T21:08:27.676Z,107.43
2018-10-18T21:10:56.444Z,113.70
2018-10-18T21:13:25.117Z,113.07
2018-10-18T21:15:53.776Z,114.33
2018-10-18T21:18:22.566Z,112.57
2018-10-18T21:20:51.325Z,107.90
2018-10-18T21:23:20.041Z,113.83
2018-10-18T21:25:48.766Z,103.23
2018-10-18T21:28:17.475Z,101.83
2018-10-18T21:30:46.198Z,106.00
2018-10-18T21:33:14.997Z,105.47
2018-10-18T21:35:43.595Z,105.10
2018-10-18T21:38:12.251Z,109.33
2018-10-18T21:40:40.935Z,101.17
2018-10-18T21:43:09.577Z,108.40
2018-10-18T21:45:38.326Z,103.07
2018-10-18T21:48:07.154Z,122.93
2018-10-18T21:50:35.785Z,106.60
2018-10-18T21:53:04.505Z,106.27
2018-10-18T21:55:33.147Z,102.50
2018-10-18T21:58:01.884Z,110.03
2018-10-18T22:00:35.109Z,108.23
2018-10-18T22:03:03.901Z,113.27
2018-10-18T22:05:32.506Z,111.63
2018-10-18T22:08:01.250Z,108.60
2018-10-18T22:10:29.894Z,104.30
2018-10-18T22:12:58.555Z,115.33
2018-10-18T22:15:27.277Z,104.70
2018-10-18T22:17:55.887Z,114.80
2018-10-18T22:20:24.743Z,108.93
2018-10-18T22:22:53.426Z,105.47
2018-10-18T22:25:22.110Z,112.47
2018-10-18T22:27:50.819Z,108.50
2018-10-18T22:30:19.503Z,113.20
2018-10-18T22:32:48.175Z,109.30
2018-10-18T22:35:16.923Z,114.47
2018-10-18T22:37:45.540Z,111.10
2018-10-18T22:40:14.263Z,105.83
2018-10-18T22:42:42.957Z,102.37
2018-10-18T22:45:11.657Z,107.27
2018-10-18T22:47:40.235Z,106.73
2018-10-18T22:50:08.896Z,115.63
2018-10-18T22:52:37.573Z,109.07
2018-10-18T22:55:06.643Z,113.77
2018-10-18T22:57:35.274Z,117.27
2018-10-18T23:00:04.056Z,113.43
2018-10-18T23:02:32.697Z,119.00
2018-10-18T23:05:01.447Z,115.60
2018-10-18T23:07:30.134Z,109.70
2018-10-18T23:09:58.867Z,119.10
2018-10-18T23:12:27.663Z,110.10
2018-10-18T23:14:56.387Z,113.27
2018-10-18T23:17:25.027Z,115.67
2018-10-18T23:19:53.682Z,109.70
2018-10-18T23:22:22.347Z,119.57
2018-10-18T23:24:51.085Z,104.97
2018-10-18T23:27:18.819Z,105.70
2018-10-18T23:29:47.578Z,111.50
2018-10-18T23:32:16.220Z,112.70
2018-10-18T23:34:44.910Z,105.57
2018-10-18T23:37:13.590Z,105.83
2018-10-18T23:39:42.300Z,110.13
2018-10-18T23:42:11.018Z,102.87
2018-10-18T23:44:39.679Z,109.97
2018-10-18T23:47:08.372Z,104.47
2018-10-18T23:49:37.000Z,105.10
2018-10-18T23:52:05.812Z,103.47
2018-10-18T23:54:34.668Z,107.47
2018-10-18T23:57:03.365Z,111.63
2018-10-18T23:59:32.178Z,114.07
